sensor_id;sensor_type;location;lat;lon;timestamp;pressure;altitude;pressure_sealevel;temperature;humidity
77662;BME280;69666;52.136;5.424;2023-07-29T00:01:11;100873.75;;;18.09;100.00
77662;BME280;69666;52.136;5.424;2023-07-29T00:03:40;100872.00;;;18.08;100.00
77662;BME280;69666;52.136;5.424;2023-07-29T00:06:10;100866.84;;;18.05;100.00
77662;BME280;69666;52.136;5.424;2023-07-29T00:08:39;100865.22;;;18.03;100.00
77662;BME280;69666;52.136;5.424;2023-07-29T00:11:08;100859.16;;;17.99;100.00
77662;BME280;69666;52.136;5.424;2023-07-29T00:13:38;100853.84;;;17.98;100.00
77662;BME280;69666;52.136;5.424;2023-07-29T00:16:07;100856.63;;;17.96;100.00
77662;BME280;69666;52.136;5.424;2023-07-29T00:18:36;100850.59;;;17.93;100.00
77662;BME280;69666;52.136;5.424;2023-07-29T00:21:05;100847.25;;;17.89;100.00
77662;BME280;69666;52.136;5.424;2023-07-29T00:23:35;100844.88;;;17.84;100.00
77662;BME280;69666;52.136;5.424;2023-07-29T00:26:04;100837.84;;;17.82;100.00
77662;BME280;69666;52.136;5.424;2023-07-29T00:28:33;100830.81;;;17.79;100.00
77662;BME280;69666;52.136;5.424;2023-07-29T00:31:03;100834.75;;;17.74;100.00
77662;BME280;69666;52.136;5.424;2023-07-29T00:33:34;100827.66;;;17.73;100.00
77662;BME280;69666;52.136;5.424;2023-07-29T00:36:03;100820.56;;;17.72;100.00
77662;BME280;69666;52.136;5.424;2023-07-29T00:38:32;100816.13;;;17.71;100.00
77662;BME280;69666;52.136;5.424;2023-07-29T00:41:05;100816.22;;;17.69;100.00
77662;BME280;69666;52.136;5.424;2023-07-29T00:43:35;100821.59;;;17.69;100.00
77662;BME280;69666;52.136;5.424;2023-07-29T00:46:04;100846.97;;;17.65;100.00
77662;BME280;69666;52.136;5.424;2023-07-29T00:48:37;100837.84;;;17.68;100.00
77662;BME280;69666;52.136;5.424;2023-07-29T00:51:06;100845.81;;;17.69;100.00
77662;BME280;69666;52.136;5.424;2023-07-29T00:53:35;100835.75;;;17.73;100.00
77662;BME280;69666;52.136;5.424;2023-07-29T00:56:04;100838.22;;;17.76;100.00
77662;BME280;69666;52.136;5.424;2023-07-29T00:58:34;100830.81;;;17.79;100.00
77662;BME280;69666;52.136;5.424;2023-07-29T01:01:03;100815.44;;;17.81;100.00
77662;BME280;69666;52.136;5.424;2023-07-29T01:03:33;100814.56;;;17.81;100.00
77662;BME280;69666;52.136;5.424;2023-07-29T01:06:36;100817.34;;;17.79;100.00
77662;BME280;69666;52.136;5.424;2023-07-29T01:09:38;100819.47;;;17.74;100.00
77662;BME280;69666;52.136;5.424;2023-07-29T01:15:25;100827.25;;;17.65;100.00
77662;BME280;69666;52.136;5.424;2023-07-29T01:18:06;100824.84;;;17.60;100.00
77662;BME280;69666;52.136;5.424;2023-07-29T01:20:40;100826.88;;;17.57;100.00
77662;BME280;69666;52.136;5.424;2023-07-29T01:23:09;100830.59;;;17.54;100.00
77662;BME280;69666;52.136;5.424;2023-07-29T01:25:39;100830.69;;;17.52;100.00
77662;BME280;69666;52.136;5.424;2023-07-29T01:28:08;100819.28;;;17.49;100.00
77662;BME280;69666;52.136;5.424;2023-07-29T01:30:40;100824.84;;;17.46;100.00
77662;BME280;69666;52.136;5.424;2023-07-29T01:33:19;100831.19;;;17.45;100.00
77662;BME280;69666;52.136;5.424;2023-07-29T01:36:01;100826.75;;;17.44;100.00
77662;BME280;69666;52.136;5.424;2023-07-29T01:38:37;100830.50;;;17.41;100.00
77662;BME280;69666;52.136;5.424;2023-07-29T01:41:09;100825.25;;;17.40;100.00
77662;BME280;69666;52.136;5.424;2023-07-29T01:43:39;100830.72;;;17.38;100.00
77662;BME280;69666;52.136;5.424;2023-07-29T01:46:12;100824.47;;;17.38;100.00
77662;BME280;69666;52.136;5.424;2023-07-29T01:48:43;100816.50;;;17.36;100.00
77662;BME280;69666;52.136;5.424;2023-07-29T01:51:14;100816.59;;;17.35;100.00
77662;BME280;69666;52.136;5.424;2023-07-29T01:53:43;100810.34;;;17.34;100.00
77662;BME280;69666;52.136;5.424;2023-07-29T01:56:13;100811.38;;;17.32;100.00
77662;BME280;69666;52.136;5.424;2023-07-29T01:58:52;100812.16;;;17.34;100.00
77662;BME280;69666;52.136;5.424;2023-07-29T02:01:21;100804.88;;;17.36;100.00
77662;BME280;69666;52.136;5.424;2023-07-29T02:03:50;100801.13;;;17.38;100.00
77662;BME280;69666;52.136;5.424;2023-07-29T02:06:24;100800.06;;;17.41;100.00
77662;BME280;69666;52.136;5.424;2023-07-29T02:08:55;100798.91;;;17.45;100.00
77662;BME280;69666;52.136;5.424;2023-07-29T02:11:24;100796.13;;;17.46;100.00
77662;BME280;69666;52.136;5.424;2023-07-29T02:13:57;100797.75;;;17.49;100.00
77662;BME280;69666;52.136;5.424;2023-07-29T02:16:26;100798.41;;;17.52;100.00
77662;BME280;69666;52.136;5.424;2023-07-29T02:18:56;100800.03;;;17.55;100.00
77662;BME280;69666;52.136;5.424;2023-07-29T02:21:26;100790.06;;;17.57;100.00
77662;BME280;69666;52.136;5.424;2023-07-29T02:23:55;100795.34;;;17.59;100.00
77662;BME280;69666;52.136;5.424;2023-07-29T02:26:24;100786.41;;;17.58;100.00
77662;BME280;69666;52.136;5.424;2023-07-29T02:28:54;100794.47;;;17.58;100.00
77662;BME280;69666;52.136;5.424;2023-07-29T02:31:24;100788.22;;;17.58;100.00
77662;BME280;69666;52.136;5.424;2023-07-29T02:33:54;100784.66;;;17.57;100.00
77662;BME280;69666;52.136;5.424;2023-07-29T02:36:24;100780.16;;;17.58;100.00
77662;BME280;69666;52.136;5.424;2023-07-29T02:38:53;100790.91;;;17.58;100.00
77662;BME280;69666;52.136;5.424;2023-07-29T02:41:22;100792.75;;;17.57;100.00
77662;BME280;69666;52.136;5.424;2023-07-29T02:43:51;100790.91;;;17.58;100.00
77662;BME280;69666;52.136;5.424;2023-07-29T02:46:21;100790.06;;;17.57;100.00
77662;BME280;69666;52.136;5.424;2023-07-29T02:48:51;100784.84;;;17.54;100.00
77662;BME280;69666;52.136;5.424;2023-07-29T02:51:20;100778.59;;;17.53;100.00
77662;BME280;69666;52.136;5.424;2023-07-29T02:53:49;100784.84;;;17.54;100.00
77662;BME280;69666;52.136;5.424;2023-07-29T02:56:19;100780.44;;;17.53;100.00
77662;BME280;69666;52.136;5.424;2023-07-29T02:58:48;100783.25;;;17.51;100.00
77662;BME280;69666;52.136;5.424;2023-07-29T03:01:19;100781.53;;;17.50;100.00
77662;BME280;69666;52.136;5.424;2023-07-29T03:03:49;100782.47;;;17.49;100.00
77662;BME280;69666;52.136;5.424;2023-07-29T03:06:18;100774.59;;;17.46;100.00
77662;BME280;69666;52.136;5.424;2023-07-29T03:08:48;100778.16;;;17.47;100.00
77662;BME280;69666;52.136;5.424;2023-07-29T03:11:17;100776.41;;;17.46;100.00
77662;BME280;69666;52.136;5.424;2023-07-29T03:13:46;100765.75;;;17.44;100.00
77662;BME280;69666;52.136;5.424;2023-07-29T03:16:17;100760.56;;;17.41;100.00
77662;BME280;69666;52.136;5.424;2023-07-29T03:18:52;100762.41;;;17.41;100.00
77662;BME280;69666;52.136;5.424;2023-07-29T03:21:21;100762.41;;;17.41;100.00
77662;BME280;69666;52.136;5.424;2023-07-29T03:23:51;100763.38;;;17.40;100.00
77662;BME280;69666;52.136;5.424;2023-07-29T03:26:20;100774.13;;;17.40;100.00
77662;BME280;69666;52.136;5.424;2023-07-29T03:28:49;100776.06;;;17.38;100.00
77662;BME280;69666;52.136;5.424;2023-07-29T03:31:19;100769.03;;;17.35;100.00
77662;BME280;69666;52.136;5.424;2023-07-29T03:33:48;100766.34;;;17.35;100.00
77662;BME280;69666;52.136;5.424;2023-07-29T03:36:17;100777.09;;;17.35;100.00
77662;BME280;69666;52.136;5.424;2023-07-29T03:38:47;100773.53;;;17.35;100.00
77662;BME280;69666;52.136;5.424;2023-07-29T03:41:16;100765.56;;;17.33;100.00
77662;BME280;69666;52.136;5.424;2023-07-29T03:43:46;100762.09;;;17.31;100.00
77662;BME280;69666;52.136;5.424;2023-07-29T03:46:15;100768.34;;;17.32;100.00
77662;BME280;69666;52.136;5.424;2023-07-29T03:48:48;100756.63;;;17.33;100.00
77662;BME280;69666;52.136;5.424;2023-07-29T03:51:17;100770.16;;;17.31;100.00
77662;BME280;69666;52.136;5.424;2023-07-29T03:53:46;100768.25;;;17.33;100.00
77662;BME280;69666;52.136;5.424;2023-07-29T03:56:16;100770.09;;;17.33;100.00
77662;BME280;69666;52.136;5.424;2023-07-29T03:58:46;100775.47;;;17.33;100.00
77662;BME280;69666;52.136;5.424;2023-07-29T04:01:18;100780.84;;;17.33;100.00
77662;BME280;69666;52.136;5.424;2023-07-29T04:03:47;100788.91;;;17.33;100.00
77662;BME280;69666;52.136;5.424;2023-07-29T04:06:16;100783.63;;;17.31;100.00
77662;BME280;69666;52.136;5.424;2023-07-29T04:08:46;100768.47;;;17.30;100.00
77662;BME280;69666;52.136;5.424;2023-07-29T04:11:16;100771.25;;;17.29;100.00
77662;BME280;69666;52.136;5.424;2023-07-29T04:13:45;100785.66;;;17.28;100.00
77662;BME280;69666;52.136;5.424;2023-07-29T04:16:14;100786.63;;;17.27;100.00
77662;BME280;69666;52.136;5.424;2023-07-29T04:18:44;100787.59;;;17.26;100.00
77662;BME280;69666;52.136;5.424;2023-07-29T04:21:14;100775.19;;;17.23;100.00
77662;BME280;69666;52.136;5.424;2023-07-29T04:23:43;100768.94;;;17.23;100.00
77662;BME280;69666;52.136;5.424;2023-07-29T04:26:12;100758.19;;;17.23;100.00
77662;BME280;69666;52.136;5.424;2023-07-29T04:28:42;100763.78;;;17.20;100.00
77662;BME280;69666;52.136;5.424;2023-07-29T04:31:11;100769.16;;;17.20;100.00
77662;BME280;69666;52.136;5.424;2023-07-29T04:33:41;100767.41;;;17.19;100.00
77662;BME280;69666;52.136;5.424;2023-07-29T04:36:11;100773.75;;;17.18;100.00
77662;BME280;69666;52.136;5.424;2023-07-29T04:38:44;100774.81;;;17.15;100.00
77662;BME280;69666;52.136;5.424;2023-07-29T04:41:13;100773.16;;;17.12;100.00
77662;BME280;69666;52.136;5.424;2023-07-29T04:43:43;100772.28;;;17.12;100.00
77662;BME280;69666;52.136;5.424;2023-07-29T04:46:12;100773.16;;;17.12;100.00
77662;BME280;69666;52.136;5.424;2023-07-29T04:48:41;100769.59;;;17.12;100.00
77662;BME280;69666;52.136;5.424;2023-07-29T04:51:10;100774.13;;;17.11;100.00
77662;BME280;69666;52.136;5.424;2023-07-29T04:53:41;100769.69;;;17.10;100.00
77662;BME280;69666;52.136;5.424;2023-07-29T04:56:10;100778.63;;;17.11;100.00
77662;BME280;69666;52.136;5.424;2023-07-29T04:58:39;100778.72;;;17.09;100.00
77662;BME280;69666;52.136;5.424;2023-07-29T05:01:08;100778.84;;;17.08;100.00
77662;BME280;69666;52.136;5.424;2023-07-29T05:03:38;100785.94;;;17.09;100.00
77662;BME280;69666;52.136;5.424;2023-07-29T05:06:08;100788.53;;;17.10;100.00
77662;BME280;69666;52.136;5.424;2023-07-29T05:08:37;100792.94;;;17.11;100.00
77662;BME280;69666;52.136;5.424;2023-07-29T05:11:07;100789.22;;;17.14;100.00
77662;BME280;69666;52.136;5.424;2023-07-29T05:13:36;100787.28;;;17.16;100.00
77662;BME280;69666;52.136;5.424;2023-07-29T05:16:06;100797.97;;;17.18;100.00
77662;BME280;69666;52.136;5.424;2023-07-29T05:18:35;100793.34;;;17.20;100.00
77662;BME280;69666;52.136;5.424;2023-07-29T05:21:05;100791.41;;;17.22;100.00
77662;BME280;69666;52.136;5.424;2023-07-29T05:23:36;100798.34;;;17.26;100.00
77662;BME280;69666;52.136;5.424;2023-07-29T05:26:05;100802.56;;;17.30;100.00
77662;BME280;69666;52.136;5.424;2023-07-29T05:28:34;100802.34;;;17.33;100.00
77662;BME280;69666;52.136;5.424;2023-07-29T05:31:03;100796.88;;;17.34;100.00
77662;BME280;69666;52.136;5.424;2023-07-29T05:33:33;100794.09;;;17.36;100.00
77662;BME280;69666;52.136;5.424;2023-07-29T05:36:04;100796.63;;;17.39;100.00
77662;BME280;69666;52.136;5.424;2023-07-29T05:38:34;100800.81;;;17.43;100.00
77662;BME280;69666;52.136;5.424;2023-07-29T05:41:03;100801.59;;;17.45;100.00
77662;BME280;69666;52.136;5.424;2023-07-29T05:43:32;100810.34;;;17.48;100.00
77662;BME280;69666;52.136;5.424;2023-07-29T05:46:01;100813.72;;;17.52;100.00
77662;BME280;69666;52.136;5.424;2023-07-29T05:48:31;100817.16;;;17.54;100.00
77662;BME280;69666;52.136;5.424;2023-07-29T05:51:00;100819.47;;;17.60;100.00
77662;BME280;69666;52.136;5.424;2023-07-29T05:53:30;100811.97;;;17.65;100.00
77662;BME280;69666;52.136;5.424;2023-07-29T05:55:59;100821.59;;;17.69;100.00
77662;BME280;69666;52.136;5.424;2023-07-29T05:58:29;100817.75;;;17.73;100.00
77662;BME280;69666;52.136;5.424;2023-07-29T06:00:59;100810.06;;;17.81;100.00
77662;BME280;69666;52.136;5.424;2023-07-29T06:03:28;100808.00;;;17.85;100.00
77662;BME280;69666;52.136;5.424;2023-07-29T06:05:58;100807.81;;;17.88;100.00
77662;BME280;69666;52.136;5.424;2023-07-29T06:08:27;100806.56;;;17.94;100.00
77662;BME280;69666;52.136;5.424;2023-07-29T06:10:57;100808.31;;;17.95;100.00
77662;BME280;69666;52.136;5.424;2023-07-29T06:13:26;100804.31;;;18.00;100.00
77662;BME280;69666;52.136;5.424;2023-07-29T06:15:55;100803.06;;;18.06;100.00
77662;BME280;69666;52.136;5.424;2023-07-29T06:18:25;100799.88;;;18.13;100.00
77662;BME280;69666;52.136;5.424;2023-07-29T06:20:55;100792.72;;;18.27;100.00
77662;BME280;69666;52.136;5.424;2023-07-29T06:23:24;100798.00;;;18.41;100.00
77662;BME280;69666;52.136;5.424;2023-07-29T06:25:53;100801.50;;;18.55;100.00
77662;BME280;69666;52.136;5.424;2023-07-29T06:28:23;100809.34;;;18.73;100.00
77662;BME280;69666;52.136;5.424;2023-07-29T06:30:52;100792.31;;;18.85;100.00
77662;BME280;69666;52.136;5.424;2023-07-29T06:33:22;100805.28;;;18.92;100.00
77662;BME280;69666;52.136;5.424;2023-07-29T06:35:51;100813.59;;;19.02;100.00
77662;BME280;69666;52.136;5.424;2023-07-29T06:38:20;100810.03;;;19.02;100.00
77662;BME280;69666;52.136;5.424;2023-07-29T06:40:50;100800.63;;;19.07;100.00
77662;BME280;69666;52.136;5.424;2023-07-29T06:43:20;100805.63;;;19.13;100.00
77662;BME280;69666;52.136;5.424;2023-07-29T06:45:49;100808.19;;;19.27;100.00
77662;BME280;69666;52.136;5.424;2023-07-29T06:48:20;100807.88;;;19.32;100.00
77662;BME280;69666;52.136;5.424;2023-07-29T06:50:49;100810.78;;;19.29;100.00
77662;BME280;69666;52.136;5.424;2023-07-29T06:53:18;100819.31;;;19.36;100.00
77662;BME280;69666;52.136;5.424;2023-07-29T06:55:48;100810.13;;;19.38;100.00
77662;BME280;69666;52.136;5.424;2023-07-29T06:58:17;100823.31;;;19.43;100.00
77662;BME280;69666;52.136;5.424;2023-07-29T07:00:46;100815.22;;;19.43;100.00
77662;BME280;69666;52.136;5.424;2023-07-29T07:03:15;100819.84;;;19.41;100.00
77662;BME280;69666;52.136;5.424;2023-07-29T07:05:45;100820.41;;;19.46;100.00
77662;BME280;69666;52.136;5.424;2023-07-29T07:08:14;100819.84;;;19.41;100.00
77662;BME280;69666;52.136;5.424;2023-07-29T07:10:43;100817.28;;;19.52;100.00
77662;BME280;69666;52.136;5.424;2023-07-29T07:13:12;100821.25;;;19.59;100.00
77662;BME280;69666;52.136;5.424;2023-07-29T07:15:42;100817.56;;;19.60;100.00
77662;BME280;69666;52.136;5.424;2023-07-29T07:18:11;100822.00;;;19.61;100.00
77662;BME280;69666;52.136;5.424;2023-07-29T07:20:40;100824.09;;;19.57;100.00
77662;BME280;69666;52.136;5.424;2023-07-29T07:23:09;100825.16;;;19.55;100.00
77662;BME280;69666;52.136;5.424;2023-07-29T07:25:41;100826.34;;;19.51;100.00
77662;BME280;69666;52.136;5.424;2023-07-29T07:28:10;100832.16;;;19.45;100.00
77662;BME280;69666;52.136;5.424;2023-07-29T07:30:40;100833.25;;;19.42;100.00
77662;BME280;69666;52.136;5.424;2023-07-29T07:33:10;100827.72;;;19.44;100.00
77662;BME280;69666;52.136;5.424;2023-07-29T07:35:39;100832.47;;;19.40;100.00
77662;BME280;69666;52.136;5.424;2023-07-29T07:38:10;100835.16;;;19.40;100.00
77662;BME280;69666;52.136;5.424;2023-07-29T07:40:39;100829.56;;;19.43;100.00
77662;BME280;69666;52.136;5.424;2023-07-29T07:43:08;100828.59;;;19.44;100.00
77662;BME280;69666;52.136;5.424;2023-07-29T07:45:38;100833.75;;;19.47;100.00
77662;BME280;69666;52.136;5.424;2023-07-29T07:48:07;100832.91;;;19.47;100.00
77662;BME280;69666;52.136;5.424;2023-07-29T07:50:38;100834.34;;;19.52;100.00
77662;BME280;69666;52.136;5.424;2023-07-29T07:53:07;100829.50;;;19.57;100.00
77662;BME280;69666;52.136;5.424;2023-07-29T07:55:36;100838.75;;;19.66;100.00
77662;BME280;69666;52.136;5.424;2023-07-29T07:58:06;100824.47;;;19.77;100.00
77662;BME280;69666;52.136;5.424;2023-07-29T08:00:35;100830.72;;;19.90;100.00
77662;BME280;69666;52.136;5.424;2023-07-29T08:03:04;100834.34;;;20.01;100.00
77662;BME280;69666;52.136;5.424;2023-07-29T08:05:33;100837.69;;;20.05;100.00
77662;BME280;69666;52.136;5.424;2023-07-29T08:08:03;100839.19;;;20.09;100.00
77662;BME280;69666;52.136;5.424;2023-07-29T08:10:32;100839.63;;;20.03;100.00
77662;BME280;69666;52.136;5.424;2023-07-29T08:13:02;100835.44;;;19.99;100.00
77662;BME280;69666;52.136;5.424;2023-07-29T08:15:31;100833.25;;;20.04;100.00
77662;BME280;69666;52.136;5.424;2023-07-29T08:18:00;100834.41;;;20.13;100.00
77662;BME280;69666;52.136;5.424;2023-07-29T08:20:29;100834.25;;;20.27;100.00
77662;BME280;69666;52.136;5.424;2023-07-29T08:22:59;100839.44;;;20.30;100.00
77662;BME280;69666;52.136;5.424;2023-07-29T08:25:29;100833.25;;;20.40;100.00
77662;BME280;69666;52.136;5.424;2023-07-29T08:27:59;100831.97;;;20.57;100.00
77662;BME280;69666;52.136;5.424;2023-07-29T08:30:28;100836.19;;;20.61;100.00
77662;BME280;69666;52.136;5.424;2023-07-29T08:32:57;100826.00;;;20.65;100.00
77662;BME280;69666;52.136;5.424;2023-07-29T08:35:26;100833.59;;;20.60;100.00
77662;BME280;69666;52.136;5.424;2023-07-29T08:37:56;100836.88;;;20.52;100.00
77662;BME280;69666;52.136;5.424;2023-07-29T08:40:28;100840.91;;;20.47;100.00
77662;BME280;69666;52.136;5.424;2023-07-29T08:42:58;100842.25;;;20.41;100.00
77662;BME280;69666;52.136;5.424;2023-07-29T08:45:34;100841.06;;;20.32;100.00
77662;BME280;69666;52.136;5.424;2023-07-29T08:48:09;100838.56;;;20.29;100.00
77662;BME280;69666;52.136;5.424;2023-07-29T08:50:40;100836.84;;;20.28;100.00
77662;BME280;69666;52.136;5.424;2023-07-29T08:53:10;100842.38;;;20.27;100.00
77662;BME280;69666;52.136;5.424;2023-07-29T08:55:39;100839.53;;;20.28;100.00
77662;BME280;69666;52.136;5.424;2023-07-29T08:58:09;100844.88;;;20.17;100.00
77662;BME280;69666;52.136;5.424;2023-07-29T09:00:39;100843.69;;;20.21;100.00
77662;BME280;69666;52.136;5.424;2023-07-29T09:03:09;100838.16;;;20.23;100.00
77662;BME280;69666;52.136;5.424;2023-07-29T09:05:39;100838.03;;;20.24;100.00
77662;BME280;69666;52.136;5.424;2023-07-29T09:08:08;100840.13;;;20.21;100.00
77662;BME280;69666;52.136;5.424;2023-07-29T09:10:38;100843.16;;;20.16;100.00
77662;BME280;69666;52.136;5.424;2023-07-29T09:13:08;100848.44;;;20.18;100.00
77662;BME280;69666;52.136;5.424;2023-07-29T09:15:37;100852.19;;;20.28;100.00
77662;BME280;69666;52.136;5.424;2023-07-29T09:18:19;100844.34;;;20.72;100.00
77662;BME280;69666;52.136;5.424;2023-07-29T09:20:50;100837.19;;;21.06;100.00
77662;BME280;69666;52.136;5.424;2023-07-29T09:23:19;100842.41;;;21.21;100.00
77662;BME280;69666;52.136;5.424;2023-07-29T09:25:48;100832.94;;;21.26;100.00
77662;BME280;69666;52.136;5.424;2023-07-29T09:28:18;100843.41;;;21.20;100.00
77662;BME280;69666;52.136;5.424;2023-07-29T09:30:48;100833.56;;;21.19;100.00
77662;BME280;69666;52.136;5.424;2023-07-29T09:33:19;100826.84;;;21.11;100.00
77662;BME280;69666;52.136;5.424;2023-07-29T09:35:48;100833.75;;;21.16;100.00
77662;BME280;69666;52.136;5.424;2023-07-29T09:38:17;100828.78;;;20.98;100.00
77662;BME280;69666;52.136;5.424;2023-07-29T09:40:46;100836.91;;;20.87;100.00
77662;BME280;69666;52.136;5.424;2023-07-29T09:43:17;100843.03;;;20.89;100.00
77662;BME280;69666;52.136;5.424;2023-07-29T09:45:46;100833.94;;;20.90;100.00
77662;BME280;69666;52.136;5.424;2023-07-29T09:48:22;100836.53;;;20.92;100.00
77662;BME280;69666;52.136;5.424;2023-07-29T09:50:51;100840.22;;;20.91;100.00
77662;BME280;69666;52.136;5.424;2023-07-29T09:53:21;100834.75;;;20.80;100.00
77662;BME280;69666;52.136;5.424;2023-07-29T09:55:53;100845.47;;;20.81;100.00
77662;BME280;69666;52.136;5.424;2023-07-29T09:58:28;100842.38;;;20.74;100.00
77662;BME280;69666;52.136;5.424;2023-07-29T10:00:57;100852.41;;;20.61;100.00
77662;BME280;69666;52.136;5.424;2023-07-29T10:03:27;100863.81;;;20.54;100.00
77662;BME280;69666;52.136;5.424;2023-07-29T10:06:06;100859.84;;;20.34;100.00
77662;BME280;69666;52.136;5.424;2023-07-29T10:08:35;100851.91;;;20.20;100.00
77662;BME280;69666;52.136;5.424;2023-07-29T10:11:09;100861.09;;;20.17;100.00
77662;BME280;69666;52.136;5.424;2023-07-29T10:13:39;100850.00;;;20.09;100.00
77662;BME280;69666;52.136;5.424;2023-07-29T10:16:15;100850.22;;;20.06;100.00
77662;BME280;69666;52.136;5.424;2023-07-29T10:18:45;100854.66;;;20.07;100.00
77662;BME280;69666;52.136;5.424;2023-07-29T10:21:15;100864.13;;;20.13;100.00
77662;BME280;69666;52.136;5.424;2023-07-29T10:23:47;100857.44;;;20.18;100.00
77662;BME280;69666;52.136;5.424;2023-07-29T10:26:41;100861.22;;;20.16;100.00
77662;BME280;69666;52.136;5.424;2023-07-29T10:29:19;100858.00;;;20.11;100.00
77662;BME280;69666;52.136;5.424;2023-07-29T10:31:55;100866.53;;;20.04;100.00
77662;BME280;69666;52.136;5.424;2023-07-29T10:34:26;100863.31;;;19.99;100.00
77662;BME280;69666;52.136;5.424;2023-07-29T10:36:56;100871.28;;;20.01;100.00
77662;BME280;69666;52.136;5.424;2023-07-29T10:39:25;100869.34;;;20.03;100.00
77662;BME280;69666;52.136;5.424;2023-07-29T10:42:02;100875.94;;;20.12;100.00
77662;BME280;69666;52.136;5.424;2023-07-29T10:47:21;100868.03;;;20.21;100.00
77662;BME280;69666;52.136;5.424;2023-07-29T10:49:54;100865.81;;;20.26;100.00
77662;BME280;69666;52.136;5.424;2023-07-29T10:52:44;100853.56;;;20.33;100.00
77662;BME280;69666;52.136;5.424;2023-07-29T10:55:29;100851.66;;;20.35;100.00
77662;BME280;69666;52.136;5.424;2023-07-29T10:58:13;100856.94;;;20.37;100.00
77662;BME280;69666;52.136;5.424;2023-07-29T11:00:44;100855.97;;;20.38;100.00
77662;BME280;69666;52.136;5.424;2023-07-29T11:03:14;100860.41;;;20.39;100.00
77662;BME280;69666;52.136;5.424;2023-07-29T11:05:52;100853.66;;;20.45;100.00
77662;BME280;69666;52.136;5.424;2023-07-29T11:08:27;100855.88;;;20.63;100.00
77662;BME280;69666;52.136;5.424;2023-07-29T11:11:11;100873.06;;;20.86;100.00
77662;BME280;69666;52.136;5.424;2023-07-29T11:13:41;100865.81;;;20.87;100.00
77662;BME280;69666;52.136;5.424;2023-07-29T11:16:10;100868.13;;;20.91;100.00
77662;BME280;69666;52.136;5.424;2023-07-29T11:18:47;100870.34;;;20.86;100.00
77662;BME280;69666;52.136;5.424;2023-07-29T11:21:17;100867.75;;;20.85;100.00
77662;BME280;69666;52.136;5.424;2023-07-29T11:23:46;100874.31;;;20.69;100.00
77662;BME280;69666;52.136;5.424;2023-07-29T11:26:15;100871.78;;;20.55;100.00
77662;BME280;69666;52.136;5.424;2023-07-29T11:28:46;100881.88;;;20.53;100.00
77662;BME280;69666;52.136;5.424;2023-07-29T11:31:15;100886.63;;;20.50;100.00
77662;BME280;69666;52.136;5.424;2023-07-29T11:33:47;100880.97;;;20.29;100.00
77662;BME280;69666;52.136;5.424;2023-07-29T11:36:19;100876.41;;;20.29;100.00
77662;BME280;69666;52.136;5.424;2023-07-29T11:38:48;100867.88;;;20.23;100.00
77662;BME280;69666;52.136;5.424;2023-07-29T11:41:20;100876.78;;;20.12;100.00
77662;BME280;69666;52.136;5.424;2023-07-29T11:43:50;100876.66;;;20.14;100.00
77662;BME280;69666;52.136;5.424;2023-07-29T11:46:21;100871.28;;;20.01;100.00
77662;BME280;69666;52.136;5.424;2023-07-29T11:48:54;100878.13;;;19.94;100.00
77662;BME280;69666;52.136;5.424;2023-07-29T11:51:23;100877.16;;;19.82;100.00
77662;BME280;69666;52.136;5.424;2023-07-29T11:53:54;100870.50;;;19.75;100.00
77662;BME280;69666;52.136;5.424;2023-07-29T11:56:24;100872.75;;;19.81;100.00
77662;BME280;69666;52.136;5.424;2023-07-29T11:58:54;100874.78;;;19.90;100.00
77662;BME280;69666;52.136;5.424;2023-07-29T12:01:24;100876.06;;;19.97;100.00
77662;BME280;69666;52.136;5.424;2023-07-29T12:03:55;100877.25;;;20.06;100.00
77662;BME280;69666;52.136;5.424;2023-07-29T12:06:25;100875.78;;;20.26;100.00
77662;BME280;69666;52.136;5.424;2023-07-29T12:08:55;100877.16;;;20.44;100.00
77662;BME280;69666;52.136;5.424;2023-07-29T12:11:24;100861.66;;;20.70;100.00
77662;BME280;69666;52.136;5.424;2023-07-29T12:13:54;100865.09;;;20.96;100.00
77662;BME280;69666;52.136;5.424;2023-07-29T12:16:43;100864.47;;;21.27;100.00
77662;BME280;69666;52.136;5.424;2023-07-29T12:19:33;100857.22;;;21.50;100.00
77662;BME280;69666;52.136;5.424;2023-07-29T12:22:05;100851.94;;;21.71;100.00
77662;BME280;69666;52.136;5.424;2023-07-29T12:24:36;100859.31;;;21.80;100.00
77662;BME280;69666;52.136;5.424;2023-07-29T12:27:11;100861.41;;;21.88;100.00
77662;BME280;69666;52.136;5.424;2023-07-29T12:29:42;100854.25;;;21.98;100.00
77662;BME280;69666;52.136;5.424;2023-07-29T12:32:14;100851.81;;;21.95;100.00
77662;BME280;69666;52.136;5.424;2023-07-29T12:34:45;100850.22;;;21.92;100.00
77662;BME280;69666;52.136;5.424;2023-07-29T12:37:14;100857.84;;;21.87;100.00
77662;BME280;69666;52.136;5.424;2023-07-29T12:39:43;100858.69;;;21.65;100.00
77662;BME280;69666;52.136;5.424;2023-07-29T12:42:12;100858.97;;;21.62;100.00
77662;BME280;69666;52.136;5.424;2023-07-29T12:44:42;100850.69;;;21.64;100.00
77662;BME280;69666;52.136;5.424;2023-07-29T12:47:11;100845.03;;;21.67;100.00
77662;BME280;69666;52.136;5.424;2023-07-29T12:49:40;100856.09;;;21.64;100.00
77662;BME280;69666;52.136;5.424;2023-07-29T12:52:09;100854.88;;;21.68;100.00
77662;BME280;69666;52.136;5.424;2023-07-29T12:54:38;100855.00;;;21.66;100.00
77662;BME280;69666;52.136;5.424;2023-07-29T12:57:08;100866.94;;;21.64;100.00
77662;BME280;69666;52.136;5.424;2023-07-29T12:59:37;100856.63;;;21.69;100.00
77662;BME280;69666;52.136;5.424;2023-07-29T13:02:06;100853.41;;;21.75;100.00
77662;BME280;69666;52.136;5.424;2023-07-29T13:04:36;100850.56;;;21.76;100.00